ヘルシンキ/ヴァンター の空港の天気 - METARとTAF

ヘルシンキ・ヴァンター国際空港 ( EFHK / HEL ) - フィンランド ヴァンター
飛行場実況気象(Metar)
観測時間09/23 13:50 EEST (09/23 10:50 UTC)
風向・風速東 5m/s
視程10km以上
天気現象
なし
気温17℃
湿度63%
気圧1030hPa
METAREFHK 231050Z 08009KT 050V120 CAVOK 17/10 Q1030 NOSIG
過去の天気等 Google飛行場航空写真 Wunderground天気予報

過去48時間のMETAR

飛行場予報(TAF)
発表時間: 9/23 11:27 EEST (9/23 08:27 UTC)
予報対象時間: 23日12時 EEST ~ 24日12時 EEST
風向・風速東 5m/s
視程10km以上
全天の8割程度の雲 雲底高度 270m
23日12時 EEST ~ 23日13時 EEST に徐々に
少しの雲 雲底高度 370m
TAF EFHK 230827Z 2309/2409 08009KT 9999 BKN009
BECMG 2309/2310 FEW012